Time;durP1;ratioP1;P1;durP2;ratioP2;P2;SDS_P1;SDS_P2;PMS_P1;PMS_P2;Temp;Humidity;BMP_temperature;BMP_pressure;BME280_temperature;BME280_humidity;BME280_pressure;Samples;Min_cycle;Max_cycle;Signal;HPM_P1;HPM_P2
2023/07/10 00:00:51;;;;;;;3.55;2.10;;;;;;;17.58;72.34;98731.28;5066453;28;20052;-39
2023/07/10 00:03:18;;;;;;;5.00;2.25;;;;;;;17.57;72.67;98727.81;5065364;28;20166;-39
2023/07/10 00:05:44;;;;;;;2.60;2.17;;;;;;;17.32;72.58;98693.91;5067721;28;20044;-40
2023/07/10 00:08:10;;;;;;;3.42;2.53;;;;;;;17.51;73.21;98728.28;5067552;28;20044;-39
2023/07/10 00:10:36;;;;;;;3.90;2.50;;;;;;;17.50;73.24;98734.50;5067129;28;20037;-38
2023/07/10 00:13:02;;;;;;;2.95;2.03;;;;;;;17.48;73.36;98727.69;5065167;28;20577;-37
2023/07/10 00:15:28;;;;;;;4.72;2.13;;;;;;;17.45;73.63;98720.88;5053767;28;20512;-37
2023/07/10 00:17:54;;;;;;;4.97;2.10;;;;;;;17.43;73.80;98720.16;5066403;28;20173;-37
2023/07/10 00:20:26;;;;;;;3.88;2.10;;;;;;;17.40;74.16;98724.81;5064505;28;20488;-38
2023/07/10 00:22:52;;;;;;;4.35;2.50;;;;;;;17.36;73.99;98724.22;5066132;28;20527;-39
2023/07/10 00:25:18;;;;;;;8.68;2.20;;;;;;;17.33;74.18;98720.03;5065826;28;20033;-37
2023/07/10 00:27:49;;;;;;;4.13;2.42;;;;;;;17.31;74.22;98731.63;5064364;28;20040;-38
2023/07/10 00:30:20;;;;;;;5.45;2.13;;;;;;;17.29;74.33;98721.22;5065122;28;20755;-39
2023/07/10 00:32:51;;;;;;;3.08;2.00;;;;;;;17.26;74.68;98725.91;5048266;28;20044;-39
2023/07/10 00:35:21;;;;;;;6.30;1.90;;;;;;;17.24;74.99;98717.28;5056449;28;20048;-39
2023/07/10 00:38:00;;;;;;;2.67;1.90;;;;;;;16.93;75.19;98682.88;5049009;28;20044;-38
2023/07/10 00:40:29;;;;;;;2.65;2.05;;;;;;;17.12;75.14;98721.69;5058324;28;20141;-38
2023/07/10 00:43:11;;;;;;;5.13;1.90;;;;;;;17.09;75.65;98719.28;5056456;28;20794;-38
2023/07/10 00:45:38;;;;;;;4.90;1.75;;;;;;;17.11;76.05;98727.06;5055555;28;20121;-37
2023/07/10 00:48:13;;;;;;;2.83;1.95;;;;;;;17.07;76.13;98721.19;5059321;28;20115;-38
2023/07/10 00:50:45;;;;;;;3.55;1.65;;;;;;;17.01;75.91;98718.22;5065032;28;20036;-38
2023/07/10 00:53:17;;;;;;;4.95;1.77;;;;;;;16.73;76.22;98677.47;5052435;28;20056;-38
2023/07/10 00:55:44;;;;;;;3.65;2.30;;;;;;;16.96;76.43;98723.78;5064863;28;20044;-39
2023/07/10 00:58:25;;;;;;;2.58;1.77;;;;;;;16.95;76.70;98716.91;5052189;28;20051;-38
2023/07/10 01:01:13;;;;;;;2.45;1.83;;;;;;;16.92;76.96;98720.56;5081970;28;20071;-38
2023/07/10 01:03:40;;;;;;;2.35;2.00;;;;;;;16.89;77.01;98723.44;5080089;28;20036;-39
2023/07/10 01:06:30;;;;;;;4.53;1.73;;;;;;;16.87;77.33;98722.72;5068531;28;20496;-40
2023/07/10 01:09:03;;;;;;;4.72;2.20;;;;;;;16.86;77.31;98715.78;5047311;28;20045;-39
2023/07/10 01:11:36;;;;;;;3.92;2.00;;;;;;;16.82;77.20;98719.59;5054020;28;20045;-38
2023/07/10 01:14:04;;;;;;;3.00;1.70;;;;;;;16.80;77.59;98729.34;5060932;28;20064;-38
2023/07/10 01:16:31;;;;;;;2.90;1.60;;;;;;;16.81;77.80;98719.69;5050790;28;20147;-39
2023/07/10 01:18:58;;;;;;;2.70;1.90;;;;;;;16.80;77.90;98725.94;5067295;28;20036;-40
2023/07/10 01:21:24;;;;;;;3.28;1.80;;;;;;;16.79;77.85;98726.88;5064854;28;20045;-39
2023/07/10 01:23:50;;;;;;;3.85;1.73;;;;;;;16.73;77.65;98716.81;5053841;28;20049;-39
2023/07/10 01:26:16;;;;;;;3.83;1.70;;;;;;;16.70;77.83;98723.13;5039192;28;20036;-41
2023/07/10 01:28:43;;;;;;;5.32;2.00;;;;;;;16.67;78.11;98725.16;5068158;28;20072;-39
2023/07/10 01:31:12;;;;;;;3.20;1.60;;;;;;;16.59;78.28;98712.59;5069090;28;20040;-40
2023/07/10 01:33:41;;;;;;;4.13;1.88;;;;;;;16.65;78.31;98733.13;5067928;28;20423;-39
2023/07/10 01:36:11;;;;;;;3.90;1.88;;;;;;;16.67;78.35;98733.03;5082285;28;20572;-39
2023/07/10 01:38:42;;;;;;;3.30;2.17;;;;;;;16.66;78.34;98734.81;5085832;28;20051;-38
2023/07/10 01:41:29;;;;;;;4.00;1.80;;;;;;;16.66;78.82;98734.81;5085631;28;20036;-40
2023/07/10 01:43:55;;;;;;;5.53;1.65;;;;;;;16.67;78.28;98736.50;5065785;28;20044;-39
2023/07/10 01:46:25;;;;;;;3.38;1.55;;;;;;;16.67;78.61;98738.28;5048920;28;20049;-45
2023/07/10 01:48:54;;;;;;;5.53;1.73;;;;;;;16.66;78.55;98745.31;5060319;28;20064;-41
2023/07/10 01:51:21;;;;;;;1.85;1.30;;;;;;;16.64;78.40;98738.50;5051902;28;20040;-40
2023/07/10 01:53:48;;;;;;;3.00;1.20;;;;;;;16.60;78.40;98740.50;5050139;28;20052;-39
2023/07/10 01:56:15;;;;;;;3.42;1.58;;;;;;;16.61;78.51;98736.94;5063689;28;20044;-40
2023/07/10 01:58:42;;;;;;;2.25;1.38;;;;;;;16.58;78.82;98745.03;5028792;28;20048;-39
2023/07/10 02:01:08;;;;;;;3.17;1.70;;;;;;;16.59;78.64;98740.66;5057513;28;20040;-40
2023/07/10 02:03:35;;;;;;;1.85;1.25;;;;;;;16.57;78.73;98740.72;5068426;28;20067;-39
2023/07/10 02:06:01;;;;;;;2.33;1.40;;;;;;;16.59;78.80;98748.53;5068036;28;20040;-39
2023/07/10 02:08:27;;;;;;;2.33;1.38;;;;;;;16.59;78.83;98744.06;5068717;28;20520;-39
2023/07/10 02:10:53;;;;;;;1.52;1.05;;;;;;;16.49;78.98;98722.06;5068638;28;20048;-41
2023/07/10 02:13:24;;;;;;;1.67;1.20;;;;;;;16.62;79.21;98745.66;5084763;28;20072;-40
2023/07/10 02:15:50;;;;;;;2.33;1.15;;;;;;;16.58;79.01;98745.03;5070188;28;20040;-40
2023/07/10 02:18:16;;;;;;;2.95;1.20;;;;;;;16.50;79.21;98728.97;5050594;28;20048;-40
2023/07/10 02:20:43;;;;;;;2.85;1.27;;;;;;;16.47;79.07;98724.81;5069518;28;20051;-39
2023/07/10 02:23:09;;;;;;;2.55;1.08;;;;;;;16.65;79.23;98755.91;5068210;28;20106;-39
2023/07/10 02:25:35;;;;;;;1.63;1.10;;;;;;;16.67;79.28;98754.88;5067783;28;20078;-38
2023/07/10 02:28:01;;;;;;;2.38;1.33;;;;;;;16.68;78.79;98767.03;5067786;28;20047;-39
2023/07/10 02:30:27;;;;;;;2.45;1.15;;;;;;;16.69;78.96;98760.00;5069375;28;20143;-39
2023/07/10 02:32:53;;;;;;;4.50;1.38;;;;;;;16.69;79.12;98768.72;5068584;28;20036;-40
2023/07/10 02:35:19;;;;;;;3.40;1.25;;;;;;;16.70;79.07;98769.53;5067343;28;20044;-40
2023/07/10 02:37:45;;;;;;;2.28;1.30;;;;;;;16.72;79.07;98770.28;5067870;28;20047;-43
2023/07/10 02:40:11;;;;;;;2.03;1.10;;;;;;;16.72;78.74;98760.59;5051142;28;20106;-38
2023/07/10 02:42:37;;;;;;;2.50;1.40;;;;;;;16.68;78.78;98748.66;5067287;28;20512;-38
2023/07/10 02:45:04;;;;;;;2.75;1.30;;;;;;;16.73;78.72;98770.16;5067667;28;20079;-39
2023/07/10 02:47:31;;;;;;;3.38;1.10;;;;;;;16.74;78.62;98771.84;5051253;28;20052;-39
2023/07/10 02:49:57;;;;;;;1.42;1.17;;;;;;;16.72;78.51;98765.84;5068457;28;20170;-38
2023/07/10 02:52:23;;;;;;;1.98;1.20;;;;;;;16.75;78.46;98767.41;5066122;28;20055;-39
2023/07/10 02:54:48;;;;;;;1.80;1.10;;;;;;;16.67;78.20;98749.63;5067297;28;20075;-39
2023/07/10 02:57:14;;;;;;;1.60;1.13;;;;;;;16.83;78.15;98762.44;5066370;28;20123;-39
2023/07/10 02:59:40;;;;;;;3.30;1.15;;;;;;;16.82;77.99;98758.97;5050786;28;20048;-39
2023/07/10 03:02:06;;;;;;;2.20;1.33;;;;;;;16.89;78.27;98764.63;5067578;28;20701;-39
2023/07/10 03:04:32;;;;;;;1.38;0.90;;;;;;;16.94;77.68;98765.94;5066908;28;20420;-39
2023/07/10 03:06:58;;;;;;;2.78;1.13;;;;;;;16.98;77.48;98761.28;5053475;28;20051;-38
2023/07/10 03:09:24;;;;;;;1.50;1.20;;;;;;;16.94;77.55;98765.94;5049330;28;20039;-39
2023/07/10 03:11:50;;;;;;;5.20;1.08;;;;;;;17.01;77.22;98761.03;5066635;28;20040;-38
2023/07/10 03:14:16;;;;;;;4.10;1.77;;;;;;;16.93;76.65;98732.75;5049632;28;20040;-38
2023/07/10 03:16:42;;;;;;;2.65;1.30;;;;;;;17.05;76.58;98736.25;5067693;28;20401;-39
2023/07/10 03:19:08;;;;;;;4.80;1.40;;;;;;;17.24;76.18;98761.94;5067469;28;20052;-38
2023/07/10 03:21:34;;;;;;;3.45;1.70;;;;;;;17.30;75.82;98759.69;5047785;28;20128;-39
2023/07/10 03:24:01;;;;;;;4.10;1.70;;;;;;;17.44;75.18;98765.66;5065970;28;20490;-38
2023/07/10 03:26:27;;;;;;;2.60;1.40;;;;;;;17.56;74.74;98769.97;5065431;28;20093;-37
2023/07/10 03:29:22;;;;;;;2.05;1.38;;;;;;;17.63;74.39;98764.19;5083862;28;20032;-39
2023/07/10 03:31:48;;;;;;;1.83;1.33;;;;;;;17.66;73.96;98763.94;5049869;28;20132;-39
2023/07/10 03:34:14;;;;;;;5.22;1.45;;;;;;;17.53;73.44;98741.31;5066362;28;20131;-38
2023/07/10 03:36:42;;;;;;;2.90;1.17;;;;;;;17.65;73.14;98766.66;5048986;28;20052;-38
2023/07/10 03:39:08;;;;;;;1.70;1.20;;;;;;;17.60;73.17;98764.41;5062549;28;20051;-39
2023/07/10 03:41:35;;;;;;;6.55;3.00;;;;;;;17.48;72.79;98741.66;5062409;28;22194;-39
2023/07/10 03:44:01;;;;;;;2.42;1.38;;;;;;;17.64;72.48;98772.88;5046900;28;20520;-40
2023/07/10 03:46:27;;;;;;;3.97;2.30;;;;;;;17.63;72.55;98760.72;5054782;28;20164;-40
2023/07/10 03:48:53;;;;;;;3.20;1.30;;;;;;;17.43;72.17;98751.69;5083663;28;20051;-41
2023/07/10 03:51:19;;;;;;;2.80;1.85;;;;;;;17.54;72.14;98762.22;5066630;28;20040;-40
2023/07/10 03:53:46;;;;;;;6.78;1.73;;;;;;;17.56;71.98;98776.06;5066298;28;20050;-39
2023/07/10 03:56:12;;;;;;;8.30;1.63;;;;;;;17.51;71.77;98770.34;5046413;28;20040;-41
2023/07/10 03:58:41;;;;;;;3.10;1.73;;;;;;;17.56;71.55;98778.72;5066227;28;20094;-39
2023/07/10 04:01:07;;;;;;;2.65;1.42;;;;;;;17.53;71.17;98768.44;5051413;28;20087;-38
2023/07/10 04:03:35;;;;;;;3.17;2.00;;;;;;;17.32;70.96;98738.56;5062865;28;20141;-40
2023/07/10 04:06:02;;;;;;;4.97;1.57;;;;;;;17.55;70.79;98784.91;5066802;28;20095;-40
2023/07/10 04:08:36;;;;;;;3.35;1.23;;;;;;;17.55;70.79;98782.28;5067733;28;20055;-40
2023/07/10 04:11:24;;;;;;;3.03;1.48;;;;;;;17.54;70.57;98785.03;5050804;28;20119;-41
2023/07/10 04:13:50;;;;;;;7.07;1.70;;;;;;;17.50;70.50;98784.44;5063586;28;20056;-43
2023/07/10 04:16:20;;;;;;;8.38;1.80;;;;;;;17.51;70.03;98791.38;5054126;28;20102;-42
2023/07/10 04:18:47;;;;;;;;;;;;;;;17.51;70.25;98780.84;5065940;28;20064;-41
2023/07/10 04:21:27;;;;;;;3.55;1.65;;;;;;;17.32;70.23;98760.38;5066381;28;20393;-40
2023/07/10 04:23:54;;;;;;;9.15;2.42;;;;;;;17.23;70.20;98742.72;5065657;28;20032;-43
2023/07/10 04:26:22;;;;;;;3.45;1.90;;;;;;;17.49;70.27;98777.50;5066352;28;20151;-42
2023/07/10 04:28:50;;;;;;;4.32;1.73;;;;;;;17.51;69.91;98782.66;5064724;28;20161;-40
2023/07/10 04:31:17;;;;;;;7.25;2.50;;;;;;;17.50;69.50;98773.91;5063526;28;20037;-40
2023/07/10 04:33:44;;;;;;;3.90;1.73;;;;;;;17.51;69.35;98770.34;5065789;28;20035;-39
2023/07/10 04:36:10;;;;;;;4.68;2.30;;;;;;;17.54;68.96;98769.25;5066870;28;20045;-38
2023/07/10 04:38:36;;;;;;;5.55;2.30;;;;;;;17.55;68.82;98765.69;5066266;28;20048;-39
2023/07/10 04:41:05;;;;;;;7.97;2.85;;;;;;;17.56;68.54;98776.06;5067449;28;20041;-39
2023/07/10 04:43:32;;;;;;;5.60;2.17;;;;;;;17.59;68.53;98780.25;5048784;28;20044;-39
2023/07/10 04:46:00;;;;;;;5.15;2.83;;;;;;;17.62;68.55;98777.44;5067331;28;20040;-39
2023/07/10 04:48:26;;;;;;;4.85;2.65;;;;;;;17.62;68.13;98780.91;5067905;28;20042;-39
2023/07/10 04:50:53;;;;;;;7.18;2.67;;;;;;;17.66;68.11;98773.59;5049230;28;20052;-39
2023/07/10 04:53:20;;;;;;;5.28;2.63;;;;;;;17.68;67.93;98775.16;5082226;28;20048;-39
2023/07/10 04:55:50;;;;;;;5.10;2.58;;;;;;;17.76;67.42;98782.44;5062436;28;20033;-39
2023/07/10 04:58:17;;;;;;;4.97;2.63;;;;;;;17.81;67.42;98787.34;5053955;28;20062;-39
2023/07/10 05:00:43;;;;;;;5.88;2.55;;;;;;;17.82;66.96;98792.50;5067062;28;20157;-39
2023/07/10 05:03:09;;;;;;;4.28;2.53;;;;;;;17.85;66.53;98792.22;5067335;28;20132;-40
2023/07/10 05:05:35;;;;;;;7.53;2.70;;;;;;;17.59;65.99;98749.56;5067943;28;20716;-39
2023/07/10 05:08:02;;;;;;;5.50;2.47;;;;;;;17.73;65.75;98757.25;5065981;28;20036;-39
2023/07/10 05:10:28;;;;;;;4.68;2.22;;;;;;;17.76;65.53;98767.50;5066628;28;20052;-39
2023/07/10 05:12:54;;;;;;;4.97;2.35;;;;;;;17.96;65.45;98781.72;5066786;28;20046;-41
2023/07/10 05:15:20;;;;;;;5.30;2.60;;;;;;;17.98;65.37;98771.09;5065847;28;20048;-39
2023/07/10 05:17:46;;;;;;;4.85;2.38;;;;;;;18.16;65.14;98791.50;5065855;28;20036;-39
2023/07/10 05:20:12;;;;;;;4.00;2.30;;;;;;;18.21;64.96;98785.88;5065291;28;20094;-40
2023/07/10 05:22:40;;;;;;;6.47;2.20;;;;;;;18.16;64.74;98777.53;5049736;28;20462;-39
2023/07/10 05:25:06;;;;;;;5.03;2.90;;;;;;;18.27;64.56;98788.00;5065747;28;20504;-40
2023/07/10 05:27:32;;;;;;;3.47;2.13;;;;;;;18.34;64.18;98791.00;5067179;28;20063;-40
2023/07/10 05:29:58;;;;;;;7.18;2.08;;;;;;;18.34;63.68;98786.56;5066635;28;20041;-40
2023/07/10 05:32:23;;;;;;;5.53;2.47;;;;;;;18.28;63.36;98762.53;5068888;28;20048;-39
2023/07/10 05:34:49;;;;;;;4.18;2.38;;;;;;;18.45;63.00;98789.16;5070446;28;20036;-39
2023/07/10 05:37:16;;;;;;;5.50;2.42;;;;;;;18.52;62.72;98800.06;5070107;28;20044;-40
2023/07/10 05:39:42;;;;;;;4.35;2.83;;;;;;;18.58;62.63;98789.88;5070907;28;20072;-39
2023/07/10 05:42:07;;;;;;;7.32;2.10;;;;;;;18.69;62.17;98798.69;5070539;28;20075;-39
2023/07/10 05:44:34;;;;;;;4.63;2.45;;;;;;;18.80;61.81;98801.28;5068520;28;20507;-39
2023/07/10 05:46:59;;;;;;;4.68;2.30;;;;;;;18.69;61.62;98762.66;5068844;28;20044;-45
2023/07/10 05:49:25;;;;;;;4.10;2.05;;;;;;;18.94;61.24;98803.63;5070366;28;20451;-39
2023/07/10 05:51:52;;;;;;;5.20;2.70;;;;;;;19.03;60.56;98805.50;5070326;28;20055;-41
2023/07/10 05:54:21;;;;;;;6.05;2.17;;;;;;;19.04;60.04;98802.75;5051048;28;20135;-39
2023/07/10 05:56:47;;;;;;;3.60;2.13;;;;;;;19.08;59.77;98808.59;5064106;28;20123;-41
2023/07/10 05:59:14;;;;;;;3.80;2.10;;;;;;;19.12;59.28;98809.16;5069353;28;20082;-40
2023/07/10 06:01:40;;;;;;;6.35;2.35;;;;;;;19.19;59.09;98807.69;5069555;28;20064;-39
2023/07/10 06:04:06;;;;;;;5.85;2.35;;;;;;;19.28;58.60;98814.81;5069918;28;20032;-40
2023/07/10 06:06:33;;;;;;;6.10;2.13;;;;;;;19.30;58.40;98818.19;5084906;28;20097;-39
2023/07/10 06:08:59;;;;;;;5.03;2.20;;;;;;;19.36;58.25;98823.78;5068382;28;20036;-40
2023/07/10 06:11:25;;;;;;;5.43;2.20;;;;;;;19.35;57.88;98806.28;5068464;28;20045;-38
2023/07/10 06:13:51;;;;;;;4.78;1.88;;;;;;;19.56;57.81;98829.19;5068324;28;20075;-38
2023/07/10 06:16:17;;;;;;;4.60;2.13;;;;;;;19.41;57.56;98789.97;5068120;28;20078;-39
2023/07/10 06:18:42;;;;;;;4.32;2.03;;;;;;;19.76;57.14;98818.63;5069791;28;20036;-39
2023/07/10 06:21:10;;;;;;;6.80;2.42;;;;;;;19.85;57.14;98817.81;5067585;28;20041;-41
2023/07/10 06:23:36;;;;;;;5.35;2.30;;;;;;;19.94;56.68;98813.53;5069448;28;20040;-40
2023/07/10 06:26:02;;;;;;;4.40;2.10;;;;;;;20.05;56.20;98824.00;5068116;28;20733;-39
2023/07/10 06:28:30;;;;;;;10.20;2.30;;;;;;;20.22;55.99;98818.09;5069615;28;20032;-42
2023/07/10 06:30:57;;;;;;;3.50;2.10;;;;;;;20.42;55.58;98826.94;5069291;28;20047;-45
2023/07/10 06:33:24;;;;;;;3.47;2.15;;;;;;;20.60;55.20;98817.41;5069154;28;20139;-45
2023/07/10 06:35:50;;;;;;;4.93;2.75;;;;;;;20.63;55.05;98788.06;5067867;28;20127;-47
2023/07/10 06:38:16;;;;;;;7.22;2.28;;;;;;;21.01;54.43;98836.59;5067652;28;20118;-44
2023/07/10 06:40:42;;;;;;;7.40;2.20;;;;;;;21.35;53.51;98837.06;5067206;28;20551;-42
2023/07/10 06:43:09;;;;;;;3.78;2.03;;;;;;;21.74;52.48;98824.56;5069019;28;20037;-42
2023/07/10 06:45:35;;;;;;;6.20;2.10;;;;;;;22.40;50.81;98831.41;5067250;28;20127;-43
2023/07/10 06:48:00;;;;;;;7.80;2.40;;;;;;;23.16;49.15;98826.56;5063143;28;20194;-46
2023/07/10 06:50:26;;;;;;;6.00;2.78;;;;;;;24.17;47.08;98830.44;5047646;28;20047;-47
2023/07/10 06:52:53;;;;;;;4.28;1.80;;;;;;;25.13;45.33;98841.47;5044160;28;20591;-45
2023/07/10 06:55:18;;;;;;;4.97;1.83;;;;;;;25.88;44.15;98834.97;5067584;28;20151;-44
2023/07/10 06:57:45;;;;;;;3.70;1.95;;;;;;;26.10;43.38;98828.09;5067184;28;20135;-42
2023/07/10 07:00:14;;;;;;;4.70;2.15;;;;;;;27.01;41.70;98830.97;5068487;28;20044;-45
2023/07/10 07:02:40;;;;;;;5.32;2.00;;;;;;;28.10;39.99;98825.13;5067221;28;20428;-44
2023/07/10 07:05:07;;;;;;;6.90;2.10;;;;;;;29.32;38.19;98840.38;5067308;28;20063;-43
2023/07/10 07:07:34;;;;;;;5.57;2.10;;;;;;;29.64;37.38;98838.97;5063799;28;20123;-46
2023/07/10 07:10:00;;;;;;;4.13;2.40;;;;;;;30.70;35.37;98833.22;5067896;28;20044;-44
2023/07/10 07:12:27;;;;;;;4.97;2.20;;;;;;;31.09;34.62;98843.25;5068206;28;20040;-45
2023/07/10 07:14:53;;;;;;;3.90;2.10;;;;;;;31.57;32.92;98808.97;5030031;28;20052;-44
2023/07/10 07:17:19;;;;;;;4.68;2.53;;;;;;;32.33;31.97;98839.66;5065045;28;20071;-46
2023/07/10 07:19:46;;;;;;;8.23;2.50;;;;;;;33.12;30.82;98841.13;5062700;28;20403;-45
2023/07/10 07:22:13;;;;;;;5.97;2.27;;;;;;;33.79;29.39;98842.31;5040811;28;20057;-52
2023/07/10 07:24:39;;;;;;;7.85;2.17;;;;;;;34.39;29.00;98838.75;5063122;28;20045;-66
2023/07/10 07:27:05;;;;;;;5.40;2.08;;;;;;;35.08;27.69;98842.84;5064945;28;20401;-61
2023/07/10 07:29:31;;;;;;;6.88;2.15;;;;;;;35.14;27.45;98847.31;5052904;28;20050;-61
2023/07/10 07:31:57;;;;;;;4.93;2.20;;;;;;;35.70;26.91;98842.53;5049193;28;20051;-61
2023/07/10 07:34:24;;;;;;;3.28;1.80;;;;;;;36.17;26.08;98844.16;5066304;28;20082;-60
2023/07/10 07:36:50;;;;;;;7.95;2.60;;;;;;;34.98;27.49;98830.94;5054522;28;20032;-56
2023/07/10 07:39:17;;;;;;;10.23;2.35;;;;;;;34.38;27.35;98839.00;5064636;28;20401;-44
2023/07/10 07:41:43;;;;;;;12.88;2.22;;;;;;;32.75;29.01;98837.44;5045073;28;20135;-59
2023/07/10 07:44:09;;;;;;;8.63;2.60;;;;;;;31.36;30.65;98836.84;5064607;28;20436;-60
2023/07/10 07:46:36;;;;;;;8.93;2.30;;;;;;;31.69;30.79;98838.75;5060208;28;20143;-43
2023/07/10 07:49:02;;;;;;;3.28;2.20;;;;;;;32.65;29.44;98847.84;5050869;28;20051;-43
2023/07/10 07:51:29;;;;;;;4.63;1.83;;;;;;;33.97;27.68;98858.50;5065011;28;20044;-41
2023/07/10 07:54:07;;;;;;;8.88;2.10;;;;;;;35.08;26.30;98845.53;5047731;28;20127;-49
2023/07/10 07:56:32;;;;;;;8.20;2.33;;;;;;;35.91;25.79;98844.63;5061568;28;20041;-45
2023/07/10 07:58:59;;;;;;;4.38;2.25;;;;;;;36.54;24.67;98850.06;5057079;28;20033;-49
2023/07/10 08:01:25;;;;;;;5.97;2.03;;;;;;;37.14;24.05;98847.75;5082455;28;20064;-51
2023/07/10 08:03:50;;;;;;;3.58;1.80;;;;;;;37.85;23.10;98842.66;5049233;28;20041;-49
2023/07/10 08:06:16;;;;;;;6.90;2.80;;;;;;;37.63;23.50;98839.94;5067217;28;20033;-50
2023/07/10 08:08:42;;;;;;;6.25;2.40;;;;;;;36.30;24.53;98862.03;5065178;28;20134;-48
2023/07/10 08:11:08;;;;;;;2.97;2.75;;;;;;;35.98;24.54;98846.16;5067164;28;20048;-46
2023/07/10 08:13:34;;;;;;;6.22;2.35;;;;;;;36.98;23.88;98853.13;5065502;28;20139;-48
2023/07/10 08:16:00;;;;;;;3.63;2.00;;;;;;;37.44;23.25;98836.59;5065041;28;20120;-48
2023/07/10 08:18:26;;;;;;;6.28;2.28;;;;;;;38.40;22.27;98865.19;5065222;28;20519;-45
2023/07/10 08:21:00;;;;;;;7.60;2.40;;;;;;;39.13;21.17;98838.59;5066914;28;20098;-47
2023/07/10 08:23:26;;;;;;;5.57;2.42;;;;;;;39.85;20.76;98855.28;5065757;28;20048;-47
2023/07/10 08:25:52;;;;;;;4.75;2.60;;;;;;;40.31;20.37;98866.44;5066584;28;20569;-47
2023/07/10 08:28:18;;;;;;;11.90;2.92;;;;;;;40.77;19.94;98859.31;5066996;28;20459;-47
2023/07/10 08:30:44;;;;;;;4.18;2.08;;;;;;;39.73;20.20;98849.16;5048757;28;20048;-47
2023/07/10 08:33:10;;;;;;;3.15;2.25;;;;;;;37.92;21.74;98833.28;5065641;28;20863;-47
2023/07/10 08:35:37;;;;;;;7.18;2.30;;;;;;;37.56;22.16;98847.41;5066844;28;20060;-47
2023/07/10 08:38:02;;;;;;;4.25;2.47;;;;;;;36.85;22.97;98838.78;5066171;28;20054;-48
2023/07/10 08:40:41;;;;;;;6.68;2.70;;;;;;;38.11;21.88;98859.09;5048851;28;20033;-48
2023/07/10 08:43:35;;;;;;;4.22;2.30;;;;;;;38.69;21.24;98856.84;5082414;28;20051;-47
2023/07/10 08:46:09;;;;;;;7.05;2.45;;;;;;;38.50;21.07;98849.06;5065426;28;20039;-49
2023/07/10 08:48:44;;;;;;;2.97;2.03;;;;;;;36.58;22.82;98850.44;5045724;28;20044;-49
2023/07/10 08:51:20;;;;;;;7.50;2.30;;;;;;;35.60;24.03;98856.59;5045949;28;20036;-48
2023/07/10 08:53:58;;;;;;;8.07;2.42;;;;;;;34.29;25.70;98859.22;5046758;28;20053;-49
2023/07/10 08:56:48;;;;;;;5.65;2.67;;;;;;;33.54;26.34;98863.88;5050738;28;20101;-48
2023/07/10 08:59:17;;;;;;;2.53;1.98;;;;;;;33.10;26.49;98854.00;5065709;28;20067;-47
2023/07/10 09:01:46;;;;;;;3.17;2.45;;;;;;;32.75;27.07;98867.06;5066421;28;20076;-48
2023/07/10 09:04:15;;;;;;;3.95;2.25;;;;;;;32.27;27.58;98859.34;5050391;28;20491;-49
2023/07/10 09:06:51;;;;;;;4.18;2.20;;;;;;;32.62;27.18;98851.75;5085317;28;20048;-46
2023/07/10 09:09:28;;;;;;;6.07;2.08;;;;;;;32.11;28.01;98859.78;5068697;28;20036;-49
2023/07/10 09:11:57;;;;;;;4.93;2.67;;;;;;;31.87;28.55;98839.75;5069403;28;20045;-48
2023/07/10 09:14:30;;;;;;;3.30;2.30;;;;;;;31.56;28.61;98834.97;5069034;28;20097;-50
2023/07/10 09:16:57;;;;;;;2.65;2.22;;;;;;;33.22;27.13;98849.59;5070161;28;20052;-45
2023/07/10 09:19:23;;;;;;;3.08;1.90;;;;;;;34.23;25.85;98833.16;5069342;28;20068;-49
2023/07/10 09:21:49;;;;;;;4.35;2.28;;;;;;;33.53;26.80;98846.03;5069123;28;20078;-47
2023/07/10 09:24:22;;;;;;;3.67;2.25;;;;;;;32.29;27.77;98833.03;5069012;28;20064;-48
2023/07/10 09:26:48;;;;;;;5.47;3.50;;;;;;;31.37;28.83;98841.19;5068487;28;20046;-45
2023/07/10 09:29:35;;;;;;;3.95;2.53;;;;;;;30.60;30.71;98848.88;5032457;28;20045;-46
2023/07/10 09:32:11;;;;;;;4.63;2.80;;;;;;;29.89;31.42;98845.53;5036643;28;20056;-47
2023/07/10 09:35:01;;;;;;;4.82;2.47;;;;;;;29.05;32.09;98825.88;5052272;28;20071;-46
2023/07/10 09:37:34;;;;;;;6.72;3.13;;;;;;;28.42;33.41;98854.16;5068989;28;20407;-45
2023/07/10 09:40:39;;;;;;;4.28;2.45;;;;;;;28.15;34.00;98846.84;5069778;28;20047;-44
2023/07/10 09:43:10;;;;;;;5.30;2.97;;;;;;;28.10;34.08;98843.84;5085715;28;20052;-46
2023/07/10 09:45:39;;;;;;;3.90;2.70;;;;;;;27.82;34.62;98846.31;5052160;28;20029;-46
2023/07/10 09:48:31;;;;;;;5.70;2.95;;;;;;;27.31;35.33;98847.94;5068117;28;20046;-45
2023/07/10 09:51:02;;;;;;;4.93;3.13;;;;;;;27.00;35.92;98845.34;5044968;28;20551;-45
2023/07/10 09:53:29;;;;;;;4.03;2.55;;;;;;;26.91;36.06;98841.03;5068579;28;20064;-46
2023/07/10 09:55:55;;;;;;;5.83;2.90;;;;;;;26.98;36.16;98842.84;5063940;28;20512;-46
2023/07/10 09:58:21;;;;;;;3.75;2.55;;;;;;;26.83;36.52;98847.25;5060218;28;20033;-47
2023/07/10 10:00:48;;;;;;;3.58;3.10;;;;;;;26.67;36.33;98830.50;5069669;28;20131;-47
2023/07/10 10:03:20;;;;;;;5.85;3.20;;;;;;;26.61;36.54;98828.53;5067873;28;20036;-45
2023/07/10 10:05:53;;;;;;;5.50;2.60;;;;;;;26.22;37.41;98826.75;5068516;28;20036;-48
2023/07/10 10:08:30;;;;;;;4.68;2.80;;;;;;;25.96;37.58;98842.94;5067641;28;20624;-51
2023/07/10 10:11:05;;;;;;;7.30;3.00;;;;;;;25.83;37.69;98796.53;5048359;28;20072;-47
2023/07/10 10:13:37;;;;;;;3.83;2.92;;;;;;;26.46;37.34;98836.44;5048191;28;20037;-48
2023/07/10 10:16:12;;;;;;;8.55;3.50;;;;;;;26.20;37.83;98847.34;5047272;28;20045;-46
2023/07/10 10:19:14;;;;;;;4.90;2.80;;;;;;;26.02;38.54;98852.06;5061498;28;20051;-49
2023/07/10 10:21:40;;;;;;;4.82;2.78;;;;;;;26.24;37.95;98861.19;5026952;28;20041;-49
2023/07/10 10:24:10;;;;;;;5.90;2.65;;;;;;;25.99;38.93;98855.09;5043096;28;20048;-48
2023/07/10 10:27:11;;;;;;;11.18;3.30;;;;;;;25.75;39.43;98858.63;5069312;28;20047;-50
2023/07/10 10:30:09;;;;;;;14.80;3.95;;;;;;;25.37;39.85;98820.22;5067749;28;20789;-47
2023/07/10 10:32:34;;;;;;;8.68;3.38;;;;;;;25.70;39.81;98864.44;5067304;28;20744;-50
2023/07/10 10:35:37;;;;;;;7.10;3.30;;;;;;;25.58;40.13;98860.50;5069089;28;20036;-48
2023/07/10 10:38:41;;;;;;;6.63;2.92;;;;;;;25.28;40.83;98869.94;5067095;28;20041;-46
2023/07/10 10:41:44;;;;;;;6.95;3.58;;;;;;;25.29;41.12;98878.75;5049037;28;20342;-48
2023/07/10 10:44:24;;;;;;;7.45;3.10;;;;;;;26.23;39.57;98884.34;5047566;28;20600;-46
2023/07/10 10:46:58;;;;;;;4.13;3.13;;;;;;;28.19;36.82;98880.19;5031144;28;20048;-46
2023/07/10 10:49:46;;;;;;;6.00;3.10;;;;;;;28.77;35.91;98878.50;5063426;28;20047;-47
2023/07/10 10:52:20;;;;;;;4.03;2.80;;;;;;;28.05;36.81;98889.00;5068839;28;20036;-46
2023/07/10 10:54:58;;;;;;;4.97;2.95;;;;;;;27.69;37.24;98881.66;5067363;28;20067;-45
2023/07/10 10:58:06;;;;;;;3.13;2.60;;;;;;;27.92;36.91;98883.44;5050631;28;20083;-45
2023/07/10 11:01:13;;;;;;;7.13;3.58;;;;;;;28.17;36.54;98891.06;5047548;28;20532;-47
2023/07/10 11:03:44;;;;;;;3.53;3.13;;;;;;;27.81;36.72;98890.06;5053942;28;20044;-45
2023/07/10 11:06:31;;;;;;;5.88;3.28;;;;;;;27.16;37.33;98893.25;5068386;28;20633;-45
2023/07/10 11:09:00;;;;;;;7.25;3.10;;;;;;;26.52;38.56;98895.25;5065808;28;20052;-44
2023/07/10 11:11:29;;;;;;;7.72;3.58;;;;;;;26.01;39.25;98893.06;5068078;28;20044;-44
2023/07/10 11:13:56;;;;;;;6.30;3.80;;;;;;;25.78;39.73;98897.41;5066985;28;20126;-46
2023/07/10 11:16:22;;;;;;;6.75;3.03;;;;;;;25.66;40.16;98891.59;5066785;28;20505;-50
2023/07/10 11:18:49;;;;;;;7.78;3.30;;;;;;;25.39;40.49;98898.03;5049984;28;20068;-48
2023/07/10 11:21:14;;;;;;;4.07;3.22;;;;;;;24.99;41.21;98874.06;5068160;28;20423;-46
2023/07/10 11:23:50;;;;;;;5.93;3.70;;;;;;;24.67;41.91;98878.28;5066846;28;20036;-47
2023/07/10 11:26:25;;;;;;;7.13;3.78;;;;;;;24.48;42.47;98862.59;5066835;28;20078;-46
2023/07/10 11:29:19;;;;;;;10.90;3.92;;;;;;;24.98;42.11;98894.50;5049715;28;20516;-47
2023/07/10 11:31:52;;;;;;;4.45;3.45;;;;;;;28.11;37.84;98894.44;5066716;28;20051;-50
2023/07/10 11:34:30;;;;;;;5.00;2.90;;;;;;;29.25;36.13;98893.03;5067554;28;20534;-49
2023/07/10 11:36:58;;;;;;;6.80;3.80;;;;;;;28.83;36.47;98901.81;5066732;28;20123;-46
2023/07/10 11:39:36;;;;;;;4.25;3.17;;;;;;;28.45;36.58;98907.28;5066514;28;20036;-48
2023/07/10 11:42:02;;;;;;;5.43;3.00;;;;;;;28.94;35.84;98912.84;5065976;28;20040;-45
2023/07/10 11:44:31;;;;;;;4.90;3.10;;;;;;;29.31;35.39;98908.31;5066686;28;20032;-46
2023/07/10 11:47:00;;;;;;;4.80;3.65;;;;;;;30.55;33.71;98900.44;5066563;28;20040;-46